Time;durP1;ratioP1;P1;durP2;ratioP2;P2;SDS_P1;SDS_P2;PMS_P1;PMS_P2;Temp;Humidity;BMP_temperature;BMP_pressure;BME280_temperature;BME280_humidity;BME280_pressure;Samples;Min_cycle;Max_cycle;Signal;HPM_P1;HPM_P2
2022/07/29 00:01:52;;;;;;;1.65;1.55;;;22.20;99.90;;;;;;5071228;28;20025;-84
2022/07/29 00:04:18;;;;;;;2.45;1.55;;;22.20;99.90;;;;;;5053336;28;20051;-84
2022/07/29 00:06:44;;;;;;;2.63;1.50;;;22.10;99.90;;;;;;5053628;28;20363;-85
2022/07/29 00:09:10;;;;;;;1.63;1.20;;;22.10;99.90;;;;;;5053393;28;20028;-84
2022/07/29 00:11:35;;;;;;;2.53;1.30;;;22.00;99.90;;;;;;5053159;28;20116;-84
2022/07/29 00:14:01;;;;;;;1.60;1.50;;;22.00;99.90;;;;;;5037060;28;20049;-84
2022/07/29 00:16:27;;;;;;;1.45;1.35;;;22.00;99.90;;;;;;4952234;28;20023;-84
2022/07/29 00:18:53;;;;;;;2.50;1.38;;;21.90;99.90;;;;;;4953022;28;20023;-84
2022/07/29 00:21:18;;;;;;;1.27;0.90;;;21.90;99.90;;;;;;4989246;28;20023;-84
2022/07/29 00:23:44;;;;;;;1.58;1.48;;;21.90;99.90;;;;;;4988924;28;20058;-85
2022/07/29 00:26:10;;;;;;;1.40;1.30;;;21.80;99.90;;;;;;4971520;28;20097;-85
2022/07/29 00:28:36;;;;;;;1.73;1.45;;;21.90;99.90;;;;;;5007896;28;20524;-85
2022/07/29 00:31:01;;;;;;;2.05;1.25;;;22.00;99.90;;;;;;5053380;28;20032;-85
2022/07/29 00:33:28;;;;;;;4.00;1.00;;;22.00;99.90;;;;;;5053280;28;20027;-85
2022/07/29 00:35:54;;;;;;;1.25;1.15;;;21.90;99.90;;;;;;5053464;28;20060;-85
2022/07/29 00:38:20;;;;;;;1.50;1.42;;;21.90;99.90;;;;;;5056780;28;20310;-86
2022/07/29 00:40:47;;;;;;;1.40;1.30;;;22.00;99.90;;;;;;5074886;28;20078;-84
2022/07/29 00:43:13;;;;;;;1.63;1.52;;;22.00;99.90;;;;;;5057263;28;20028;-85
2022/07/29 00:45:40;;;;;;;1.05;1.02;;;22.10;99.90;;;;;;5056962;28;20497;-86
2022/07/29 00:48:06;;;;;;;1.63;1.52;;;22.00;99.90;;;;;;5074801;28;20067;-86
2022/07/29 00:50:33;;;;;;;1.40;1.30;;;22.00;99.90;;;;;;5057031;28;20028;-86
2022/07/29 00:52:59;;;;;;;2.17;1.40;;;22.00;99.90;;;;;;5074647;28;20040;-86
2022/07/29 00:55:25;;;;;;;0.90;0.90;;;22.10;99.90;;;;;;5056885;28;20394;-86
2022/07/29 00:57:52;;;;;;;1.08;1.08;;;22.00;99.90;;;;;;5056902;28;20021;-86
2022/07/29 01:00:24;;;;;;;1.30;1.23;;;22.00;99.90;;;;;;5056828;28;20029;-86
2022/07/29 01:02:50;;;;;;;1.20;1.20;;;22.10;99.90;;;;;;5056867;28;20513;-86
2022/07/29 01:05:22;;;;;;;1.17;1.17;;;22.20;99.90;;;;;;5074471;28;20028;-86
2022/07/29 01:07:49;;;;;;;;;;;22.20;99.90;;;;;;5056998;28;20024;-86
2022/07/29 01:10:16;;;;;;;1.73;1.63;;;22.20;99.90;;;;;;5056543;28;19905;-86
2022/07/29 01:12:45;;;;;;;1.52;1.42;;;22.10;99.90;;;;;;5056474;28;20032;-86
2022/07/29 01:15:12;;;;;;;1.33;1.23;;;22.00;99.90;;;;;;5056438;28;20052;-87
2022/07/29 01:18:01;;;;;;;1.30;1.27;;;22.10;99.90;;;;;;5074343;28;20025;-87
2022/07/29 01:21:04;;;;;;;1.23;1.23;;;22.10;99.90;;;;;;5056403;28;20050;-86
2022/07/29 01:23:51;;;;;;;1.40;1.27;;;22.20;99.90;;;;;;5074247;28;20029;-86
2022/07/29 01:26:58;;;;;;;1.10;1.10;;;22.20;99.90;;;;;;5074389;28;20028;-86
2022/07/29 01:29:41;;;;;;;1.30;1.20;;;22.30;99.90;;;;;;5035343;28;20513;-87
2022/07/29 01:32:19;;;;;;;1.63;1.48;;;22.40;99.90;;;;;;5056321;28;20025;-88
2022/07/29 01:34:58;;;;;;;1.27;1.27;;;22.30;99.90;;;;;;5073987;28;20021;-87
2022/07/29 01:37:32;;;;;;;1.75;1.60;;;22.30;99.90;;;;;;5074183;28;20017;-87
2022/07/29 01:40:01;;;;;;;1.38;1.20;;;22.30;99.90;;;;;;5055974;28;20216;-86
2022/07/29 01:42:43;;;;;;;1.30;1.30;;;22.30;99.90;;;;;;5056072;28;20111;-87
2022/07/29 01:45:27;;;;;;;1.50;1.40;;;22.30;99.90;;;;;;5056124;28;20059;-87
2022/07/29 01:47:57;;;;;;;0.93;0.90;;;22.20;99.90;;;;;;5073567;28;20114;-86
2022/07/29 01:50:29;;;;;;;1.15;1.13;;;22.10;99.90;;;;;;5055933;28;20032;-86
2022/07/29 01:53:05;;;;;;;1.10;1.10;;;22.20;99.90;;;;;;5055756;28;20070;-87
2022/07/29 01:55:38;;;;;;;1.40;1.20;;;22.30;99.90;;;;;;5073425;28;20025;-86
2022/07/29 01:58:05;;;;;;;1.73;1.35;;;22.30;99.90;;;;;;5073522;28;20104;-85
2022/07/29 02:00:33;;;;;;;1.00;1.00;;;22.40;99.90;;;;;;5055760;28;20029;-87
2022/07/29 02:03:02;;;;;;;1.10;1.10;;;22.40;99.90;;;;;;5055843;28;20021;-87
2022/07/29 02:05:30;;;;;;;1.10;1.10;;;22.40;99.90;;;;;;5055730;28;20025;-87
2022/07/29 02:07:58;;;;;;;1.33;1.20;;;22.40;99.90;;;;;;5055294;28;20032;-87
2022/07/29 02:10:27;;;;;;;1.15;1.15;;;22.50;99.90;;;;;;4984119;28;20062;-87
2022/07/29 02:12:55;;;;;;;1.27;1.17;;;22.40;99.90;;;;;;4954244;28;20031;-87
2022/07/29 02:15:27;;;;;;;2.92;1.27;;;22.50;99.90;;;;;;4954626;28;20030;-87
2022/07/29 02:18:00;;;;;;;0.85;0.80;;;22.50;99.90;;;;;;4954481;28;20019;-88
2022/07/29 02:20:28;;;;;;;1.10;1.10;;;22.50;99.90;;;;;;4986091;28;20050;-87
2022/07/29 02:22:56;;;;;;;1.13;1.02;;;22.60;99.90;;;;;;4954457;28;20083;-87
2022/07/29 02:25:23;;;;;;;1.08;0.98;;;22.70;99.90;;;;;;4954189;28;20087;-87
2022/07/29 02:27:51;;;;;;;1.23;1.13;;;22.70;99.90;;;;;;4961328;28;20359;-88
2022/07/29 02:30:19;;;;;;;1.13;1.13;;;22.70;99.90;;;;;;5054316;28;20031;-87
2022/07/29 02:32:48;;;;;;;1.08;1.00;;;22.80;99.90;;;;;;5055079;28;20478;-87
2022/07/29 02:35:15;;;;;;;1.05;1.05;;;22.90;99.90;;;;;;5054862;28;20031;-87
2022/07/29 02:37:44;;;;;;;1.10;1.10;;;22.90;99.90;;;;;;5072802;28;20032;-86
2022/07/29 02:40:13;;;;;;;1.27;1.27;;;22.90;99.90;;;;;;5054715;28;20047;-87
2022/07/29 02:42:42;;;;;;;2.08;1.40;;;22.90;99.90;;;;;;5054613;28;20066;-87
2022/07/29 02:45:09;;;;;;;1.20;1.10;;;22.90;99.90;;;;;;5072585;28;20025;-87
2022/07/29 02:47:46;;;;;;;1.23;1.23;;;22.90;99.90;;;;;;5072280;28;20031;-87
2022/07/29 02:50:17;;;;;;;1.33;1.30;;;22.90;99.90;;;;;;5072127;28;20029;-86
2022/07/29 02:53:05;;;;;;;1.65;1.30;;;23.00;99.90;;;;;;5054222;28;20045;-86
2022/07/29 02:55:39;;;;;;;1.23;1.23;;;23.00;99.90;;;;;;5054291;28;20127;-86
2022/07/29 02:58:34;;;;;;;3.13;1.13;;;23.00;99.90;;;;;;5054191;28;20020;-86
2022/07/29 03:01:15;;;;;;;3.20;1.48;;;23.00;99.90;;;;;;5071830;28;20066;-86
2022/07/29 03:03:44;;;;;;;1.45;1.42;;;22.90;99.90;;;;;;5054590;28;20031;-86
2022/07/29 03:06:13;;;;;;;1.80;1.70;;;22.80;99.90;;;;;;5072301;28;20033;-87
2022/07/29 03:08:40;;;;;;;2.28;1.65;;;22.80;99.90;;;;;;5053967;28;20028;-85
2022/07/29 03:11:07;;;;;;;1.63;1.52;;;22.80;99.90;;;;;;5071909;28;20024;-86
2022/07/29 03:13:34;;;;;;;1.75;1.50;;;22.80;99.90;;;;;;5072121;28;20051;-85
2022/07/29 03:16:00;;;;;;;2.08;1.70;;;22.80;99.90;;;;;;5054200;28;20024;-85
2022/07/29 03:18:27;;;;;;;2.15;2.05;;;22.80;99.90;;;;;;5053952;28;20099;-85
2022/07/29 03:20:53;;;;;;;2.20;2.00;;;22.80;99.90;;;;;;5054045;28;20135;-85
2022/07/29 03:23:22;;;;;;;4.22;1.80;;;22.70;99.90;;;;;;5072136;28;20481;-86
2022/07/29 03:25:49;;;;;;;1.35;1.25;;;22.70;99.90;;;;;;5054016;28;20031;-86
2022/07/29 03:28:15;;;;;;;1.95;1.80;;;22.80;99.90;;;;;;5053931;28;20245;-86
2022/07/29 03:30:41;;;;;;;1.80;1.70;;;22.70;99.90;;;;;;5071879;28;20056;-85
2022/07/29 03:33:06;;;;;;;1.90;1.80;;;22.70;99.90;;;;;;5071946;28;20374;-85
2022/07/29 03:35:32;;;;;;;2.28;2.17;;;22.70;99.90;;;;;;5071531;28;20055;-86
2022/07/29 03:37:59;;;;;;;2.50;1.60;;;22.80;99.90;;;;;;5053942;28;20374;-86
2022/07/29 03:41:05;;;;;;;1.70;1.70;;;22.80;99.90;;;;;;5053986;28;20652;-88
2022/07/29 03:43:34;;;;;;;2.50;2.22;;;22.70;99.90;;;;;;5016492;28;20504;-85
2022/07/29 03:46:01;;;;;;;2.05;1.90;;;22.80;99.90;;;;;;5053640;28;20482;-85
2022/07/29 03:48:30;;;;;;;2.35;2.25;;;22.70;99.90;;;;;;5071679;28;20025;-85
2022/07/29 03:50:56;;;;;;;1.80;1.70;;;22.80;99.90;;;;;;5071901;28;20028;-85
2022/07/29 03:53:22;;;;;;;1.75;1.65;;;22.80;99.90;;;;;;5053389;28;20048;-85
2022/07/29 03:55:53;;;;;;;2.33;2.22;;;22.80;99.90;;;;;;5053735;28;20509;-84
2022/07/29 03:58:19;;;;;;;2.30;2.10;;;22.80;99.90;;;;;;5071592;28;20035;-85
2022/07/29 04:00:46;;;;;;;2.35;2.20;;;22.80;99.90;;;;;;5071628;28;20027;-85
2022/07/29 04:03:13;;;;;;;2.00;1.90;;;22.80;99.90;;;;;;5053569;28;20032;-86
2022/07/29 04:05:39;;;;;;;2.50;2.40;;;22.90;99.90;;;;;;5071726;28;20103;-85
2022/07/29 04:08:05;;;;;;;2.72;2.63;;;22.80;99.90;;;;;;5053471;28;20032;-84
2022/07/29 04:10:31;;;;;;;2.10;2.00;;;22.80;99.90;;;;;;5072517;28;20027;-84
2022/07/29 04:12:56;;;;;;;2.40;2.20;;;22.80;99.90;;;;;;5075236;28;20025;-85
2022/07/29 04:15:22;;;;;;;2.33;2.13;;;22.80;99.90;;;;;;5075725;28;20019;-84
2022/07/29 04:17:48;;;;;;;4.53;2.88;;;22.80;99.90;;;;;;5068278;28;20466;-84
2022/07/29 04:20:13;;;;;;;9.95;2.90;;;22.80;99.90;;;;;;4975968;28;20031;-84
2022/07/29 04:22:40;;;;;;;2.20;2.10;;;22.80;99.90;;;;;;4976462;28;20087;-86
2022/07/29 04:25:06;;;;;;;2.65;2.55;;;22.80;99.90;;;;;;4973201;28;20030;-83
2022/07/29 04:27:32;;;;;;;2.33;2.10;;;22.80;99.90;;;;;;4955913;28;20027;-84
2022/07/29 04:29:58;;;;;;;2.25;2.15;;;22.90;99.90;;;;;;5043494;28;20034;-83
2022/07/29 04:32:24;;;;;;;2.10;2.00;;;22.80;99.90;;;;;;5074962;28;20029;-83
2022/07/29 04:34:50;;;;;;;2.63;2.00;;;22.90;99.90;;;;;;5075020;28;20097;-83
2022/07/29 04:37:16;;;;;;;2.53;2.35;;;22.90;99.90;;;;;;5057032;28;20486;-83
2022/07/29 04:39:42;;;;;;;2.53;2.40;;;22.90;99.90;;;;;;5074744;28;20027;-83
2022/07/29 04:42:08;;;;;;;2.47;2.25;;;22.90;99.90;;;;;;5074823;28;20424;-82
2022/07/29 04:44:34;;;;;;;2.20;2.10;;;22.90;99.90;;;;;;5056966;28;20066;-83
2022/07/29 04:46:59;;;;;;;2.30;2.15;;;22.90;99.90;;;;;;5057029;28;20474;-81
2022/07/29 04:49:25;;;;;;;2.55;2.38;;;22.90;99.90;;;;;;5074685;28;20025;-82
2022/07/29 04:51:51;;;;;;;3.70;2.30;;;23.00;99.90;;;;;;5074754;28;20036;-82
2022/07/29 04:54:17;;;;;;;2.05;1.95;;;23.00;99.90;;;;;;5074535;28;20076;-82
2022/07/29 04:56:43;;;;;;;1.83;1.73;;;23.10;99.90;;;;;;5056560;28;20032;-81
2022/07/29 04:59:14;;;;;;;3.35;2.53;;;23.20;99.90;;;;;;5056567;28;20103;-82
2022/07/29 05:01:40;;;;;;;2.38;2.22;;;23.20;99.90;;;;;;5074578;28;20092;-82
2022/07/29 05:04:06;;;;;;;2.20;2.10;;;23.20;99.90;;;;;;5056399;28;20478;-81
2022/07/29 05:06:31;;;;;;;1.95;1.85;;;23.30;99.90;;;;;;5074572;28;20036;-81
2022/07/29 05:08:57;;;;;;;1.92;1.83;;;23.30;99.90;;;;;;5074288;28;20024;-81
2022/07/29 05:11:23;;;;;;;1.70;1.60;;;23.40;99.90;;;;;;5074017;28;20480;-81
2022/07/29 05:13:49;;;;;;;2.45;2.25;;;23.40;99.90;;;;;;5056322;28;20016;-81
2022/07/29 05:16:14;;;;;;;2.17;2.08;;;23.50;99.90;;;;;;4998035;28;20039;-83
2022/07/29 05:18:41;;;;;;;1.52;1.45;;;23.50;99.90;;;;;;4972292;28;20023;-80
2022/07/29 05:21:07;;;;;;;1.88;1.77;;;23.60;99.90;;;;;;4972223;28;20464;-80
2022/07/29 05:23:33;;;;;;;2.00;1.90;;;23.60;99.90;;;;;;4971606;28;20019;-81
2022/07/29 05:25:59;;;;;;;2.28;2.17;;;23.60;99.90;;;;;;4972094;28;20076;-80
2022/07/29 05:28:24;;;;;;;1.98;1.88;;;23.70;99.90;;;;;;4966662;28;20030;-80
2022/07/29 05:30:50;;;;;;;1.88;1.77;;;23.70;99.90;;;;;;4971669;28;20031;-80
2022/07/29 05:33:16;;;;;;;2.13;2.03;;;23.80;99.90;;;;;;4953354;28;20384;-80
2022/07/29 05:35:42;;;;;;;2.00;1.90;;;23.90;99.90;;;;;;4970303;28;20027;-79
2022/07/29 05:38:07;;;;;;;2.20;2.10;;;23.90;99.90;;;;;;4970089;28;20023;-80
2022/07/29 05:40:33;;;;;;;1.67;1.58;;;24.10;99.90;;;;;;4970096;28;20027;-80
2022/07/29 05:42:59;;;;;;;2.38;2.20;;;24.20;99.90;;;;;;4970437;28;20053;-80
2022/07/29 05:45:25;;;;;;;2.88;2.67;;;24.20;99.90;;;;;;4970491;28;20030;-80
2022/07/29 05:47:51;;;;;;;4.03;2.30;;;24.30;99.90;;;;;;4953184;28;20034;-80
2022/07/29 05:50:17;;;;;;;5.03;3.00;;;24.40;99.90;;;;;;4952989;28;20118;-80
2022/07/29 05:52:42;;;;;;;3.83;2.85;;;24.40;99.90;;;;;;4971369;28;20051;-80
2022/07/29 05:55:08;;;;;;;2.33;2.20;;;24.40;99.90;;;;;;4955098;28;20101;-80
2022/07/29 05:57:34;;;;;;;3.85;3.45;;;24.40;99.90;;;;;;4971547;28;20030;-80
2022/07/29 06:00:00;;;;;;;3.58;3.28;;;24.20;99.90;;;;;;5042679;28;20107;-80
2022/07/29 06:02:26;;;;;;;3.60;3.40;;;24.20;99.90;;;;;;5072533;28;20052;-80
2022/07/29 06:04:52;;;;;;;4.13;3.58;;;24.20;99.90;;;;;;5054644;28;20028;-79
2022/07/29 06:07:17;;;;;;;3.72;3.53;;;24.30;99.90;;;;;;5054874;28;20021;-79
2022/07/29 06:09:43;;;;;;;3.58;3.28;;;24.40;99.90;;;;;;5054413;28;20371;-80
2022/07/29 06:12:09;;;;;;;2.80;2.60;;;24.50;99.90;;;;;;5052069;28;20032;-80
2022/07/29 06:14:35;;;;;;;3.63;3.08;;;24.50;99.90;;;;;;4975795;28;20105;-80
2022/07/29 06:17:01;;;;;;;3.08;2.78;;;24.70;99.90;;;;;;4970721;28;20027;-79
2022/07/29 06:19:27;;;;;;;3.03;2.72;;;24.70;99.90;;;;;;4970673;28;20027;-79
2022/07/29 06:21:53;;;;;;;2.78;2.47;;;24.70;99.90;;;;;;4970786;28;20030;-80
2022/07/29 06:24:19;;;;;;;3.67;2.95;;;24.70;99.90;;;;;;4953118;28;20062;-80
2022/07/29 06:26:44;;;;;;;3.08;2.78;;;24.80;99.90;;;;;;4965993;28;20096;-79
2022/07/29 06:29:11;;;;;;;3.40;3.03;;;24.80;99.90;;;;;;5032355;28;20147;-79
2022/07/29 06:31:37;;;;;;;2.75;2.45;;;24.80;99.90;;;;;;5054015;28;20028;-79
2022/07/29 06:34:03;;;;;;;3.22;3.03;;;24.90;99.90;;;;;;5054199;28;20025;-79
2022/07/29 06:36:29;;;;;;;2.92;2.63;;;25.00;99.90;;;;;;5054199;28;20024;-79
2022/07/29 06:38:55;;;;;;;4.30;3.05;;;25.00;99.90;;;;;;5053751;28;20359;-79
2022/07/29 06:41:22;;;;;;;5.13;2.60;;;25.10;99.90;;;;;;5071776;28;20025;-79
2022/07/29 06:43:48;;;;;;;4.18;2.50;;;25.20;99.90;;;;;;5071803;28;20062;-79
2022/07/29 06:46:15;;;;;;;2.58;2.47;;;25.20;99.90;;;;;;5071437;28;20032;-79
2022/07/29 06:48:42;;;;;;;3.17;2.88;;;25.30;99.90;;;;;;5071601;28;20092;-79
2022/07/29 06:51:08;;;;;;;4.68;2.47;;;25.30;99.90;;;;;;5071576;28;20032;-79
2022/07/29 06:53:35;;;;;;;3.15;2.95;;;25.40;99.90;;;;;;5053682;28;20049;-79
2022/07/29 06:56:03;;;;;;;2.90;2.60;;;25.40;99.90;;;;;;5053535;28;20028;-79
2022/07/29 06:58:29;;;;;;;4.10;2.83;;;25.50;99.90;;;;;;5071494;28;20025;-79
2022/07/29 07:01:00;;;;;;;3.92;3.00;;;25.50;99.90;;;;;;5071623;28;20021;-79
2022/07/29 07:03:26;;;;;;;2.85;2.65;;;25.50;99.90;;;;;;5053670;28;20055;-79
2022/07/29 07:05:53;;;;;;;2.95;2.75;;;25.60;99.90;;;;;;5053288;28;20481;-79
2022/07/29 07:08:19;;;;;;;3.17;2.90;;;25.70;99.90;;;;;;5028053;28;20027;-79
2022/07/29 07:10:45;;;;;;;3.40;3.10;;;25.80;99.90;;;;;;5047802;28;20035;-79
2022/07/29 07:13:11;;;;;;;3.03;2.72;;;25.80;99.90;;;;;;5053425;28;20386;-79
2022/07/29 07:15:37;;;;;;;3.40;2.70;;;25.90;99.90;;;;;;5053210;28;20025;-79
2022/07/29 07:18:04;;;;;;;2.92;2.72;;;25.80;99.90;;;;;;5053291;28;20112;-79
2022/07/29 07:20:30;;;;;;;3.20;2.72;;;25.80;99.90;;;;;;5053318;28;20028;-78
2022/07/29 07:22:55;;;;;;;2.88;2.67;;;25.90;99.90;;;;;;5071088;28;20028;-78
2022/07/29 07:25:21;;;;;;;2.58;2.38;;;25.90;99.90;;;;;;5071309;28;20028;-79
2022/07/29 07:27:47;;;;;;;2.90;2.70;;;26.00;99.90;;;;;;5052962;28;20105;-78
2022/07/29 07:30:13;;;;;;;2.78;2.40;;;25.90;99.90;;;;;;5053076;28;20031;-78
2022/07/29 07:32:39;;;;;;;4.78;3.42;;;25.80;99.90;;;;;;5053134;28;20029;-78
2022/07/29 07:35:07;;;;;;;4.07;2.92;;;25.90;99.90;;;;;;5053095;28;20029;-78
2022/07/29 07:37:32;;;;;;;2.88;2.67;;;25.90;99.90;;;;;;5052794;28;20028;-78
2022/07/29 07:39:59;;;;;;;3.63;3.33;;;25.90;99.90;;;;;;5071009;28;20029;-78
2022/07/29 07:42:25;;;;;;;3.22;2.92;;;26.00;99.90;;;;;;5053187;28;20016;-79
2022/07/29 07:44:51;;;;;;;2.83;2.45;;;26.00;99.90;;;;;;5052488;28;20370;-78
2022/07/29 07:47:19;;;;;;;2.80;2.60;;;26.10;99.90;;;;;;5052828;28;20106;-78
2022/07/29 07:49:49;;;;;;;2.97;2.78;;;26.10;99.90;;;;;;5052777;28;20031;-78
2022/07/29 07:52:20;;;;;;;3.40;3.10;;;26.10;99.90;;;;;;5070669;28;20044;-78
2022/07/29 07:54:47;;;;;;;2.95;2.55;;;26.10;99.90;;;;;;5070979;28;20021;-78
2022/07/29 07:57:14;;;;;;;4.18;2.90;;;26.30;99.90;;;;;;5070720;28;20032;-77
2022/07/29 07:59:40;;;;;;;3.58;3.28;;;26.30;99.90;;;;;;5070612;28;20108;-78
2022/07/29 08:02:06;;;;;;;3.58;3.20;;;26.40;99.90;;;;;;5070827;28;20017;-77
2022/07/29 08:04:33;;;;;;;5.00;2.53;;;26.40;99.90;;;;;;5052915;28;20028;-78
2022/07/29 08:06:59;;;;;;;4.00;2.80;;;26.50;99.90;;;;;;5070592;28;20362;-77
2022/07/29 08:09:26;;;;;;;2.85;2.67;;;26.60;99.90;;;;;;5044535;28;20059;-77
2022/07/29 08:11:52;;;;;;;3.15;2.70;;;26.60;99.90;;;;;;4969114;28;20038;-77
2022/07/29 08:14:18;;;;;;;3.22;2.92;;;26.70;99.90;;;;;;4969039;28;20023;-77
2022/07/29 08:16:44;;;;;;;3.60;3.10;;;26.80;99.90;;;;;;4951641;28;20480;-77
2022/07/29 08:19:10;;;;;;;2.63;2.50;;;26.90;99.90;;;;;;4969004;28;20026;-77
2022/07/29 08:21:37;;;;;;;3.53;3.22;;;26.90;99.90;;;;;;4968895;28;20293;-77
2022/07/29 08:26:47;;;;;;;2.92;2.72;;;27.10;99.90;;;;;;4969204;28;20396;-77
2022/07/29 08:29:13;;;;;;;3.00;2.65;;;27.10;99.90;;;;;;5024451;28;20099;-77
2022/07/29 08:31:39;;;;;;;3.25;2.95;;;27.20;99.90;;;;;;5070221;28;20021;-77
2022/07/29 08:34:06;;;;;;;3.15;2.95;;;27.20;99.90;;;;;;5018085;28;20366;-77
2022/07/29 08:36:33;;;;;;;2.67;2.58;;;27.20;99.90;;;;;;4968833;28;20026;-78
2022/07/29 08:38:59;;;;;;;3.13;2.80;;;27.30;99.90;;;;;;4951229;28;20027;-77
2022/07/29 08:41:26;;;;;;;3.00;2.80;;;27.30;99.90;;;;;;4951363;28;20019;-77
2022/07/29 08:43:52;;;;;;;3.95;3.28;;;27.40;99.90;;;;;;4951327;28;20033;-76
2022/07/29 08:46:20;;;;;;;3.38;3.08;;;27.30;99.90;;;;;;4951289;28;20031;-77
2022/07/29 08:48:46;;;;;;;2.95;2.15;;;27.30;99.90;;;;;;4961284;28;20519;-77
2022/07/29 08:51:18;;;;;;;3.92;3.63;;;27.40;99.90;;;;;;4988827;28;20412;-76
2022/07/29 08:54:00;;;;;;;3.50;3.20;;;27.40;99.90;;;;;;4972227;28;20047;-77
2022/07/29 08:56:27;;;;;;;5.38;2.80;;;27.40;99.90;;;;;;4966565;28;20026;-78
2022/07/29 08:59:19;;;;;;;4.53;3.55;;;27.40;99.90;;;;;;4972616;28;20484;-77
2022/07/29 09:01:47;;;;;;;3.25;3.05;;;27.60;99.90;;;;;;4949372;28;20039;-76
2022/07/29 09:04:14;;;;;;;4.97;3.90;;;27.60;99.90;;;;;;4949338;28;20035;-77
2022/07/29 09:06:46;;;;;;;4.22;3.90;;;27.70;99.90;;;;;;4973140;28;20041;-77
2022/07/29 09:09:13;;;;;;;4.68;3.80;;;27.90;99.90;;;;;;4972772;28;20054;-77
2022/07/29 09:11:40;;;;;;;5.93;4.07;;;28.00;99.90;;;;;;4971310;28;20019;-76
2022/07/29 09:14:05;;;;;;;6.18;3.92;;;28.00;99.90;;;;;;4968808;28;20029;-77
2022/07/29 09:17:07;;;;;;;4.20;3.50;;;28.20;99.90;;;;;;4955263;28;20027;-76
2022/07/29 09:19:36;;;;;;;3.67;3.40;;;28.40;99.50;;;;;;4986867;28;20130;-77
2022/07/29 09:22:04;;;;;;;4.28;3.85;;;28.40;99.30;;;;;;4960615;28;20144;-76
2022/07/29 09:24:37;;;;;;;4.05;3.75;;;28.40;98.60;;;;;;4969245;28;20031;-76
2022/07/29 09:27:28;;;;;;;4.57;3.75;;;28.40;99.50;;;;;;4968234;28;20022;-77
2022/07/29 09:30:06;;;;;;;4.30;3.95;;;28.50;99.40;;;;;;4955352;28;20035;-76
2022/07/29 09:32:33;;;;;;;4.28;3.97;;;28.50;98.70;;;;;;4970379;28;20035;-76
2022/07/29 09:35:22;;;;;;;4.13;3.80;;;28.50;96.80;;;;;;4952278;28;20031;-76
2022/07/29 09:37:57;;;;;;;4.38;3.72;;;28.50;96.60;;;;;;4967789;28;20023;-76
2022/07/29 09:40:27;;;;;;;6.25;4.43;;;28.60;97.90;;;;;;4961342;28;20110;-76
2022/07/29 09:42:57;;;;;;;3.80;3.45;;;28.70;97.30;;;;;;4951975;28;20097;-76
2022/07/29 09:45:41;;;;;;;6.35;4.20;;;28.70;96.50;;;;;;4952545;28;20109;-76
2022/07/29 09:48:24;;;;;;;4.15;3.85;;;28.80;96.00;;;;;;4962782;28;20050;-77
2022/07/29 09:50:52;;;;;;;4.18;3.83;;;28.80;96.00;;;;;;4967950;28;20075;-76
2022/07/29 09:53:37;;;;;;;4.55;3.97;;;28.90;96.40;;;;;;4966959;28;20061;-76
2022/07/29 09:56:04;;;;;;;4.30;3.83;;;28.90;96.50;;;;;;4960491;28;20024;-76
2022/07/29 09:58:33;;;;;;;4.68;4.35;;;29.00;95.40;;;;;;4960109;28;20073;-76
2022/07/29 10:01:03;;;;;;;4.50;4.10;;;29.00;95.10;;;;;;4952416;28;20027;-76
2022/07/29 10:03:28;;;;;;;3.83;3.53;;;28.90;95.90;;;;;;4965095;28;20133;-76
2022/07/29 10:06:09;;;;;;;3.85;3.50;;;29.00;95.90;;;;;;4951577;28;20492;-76
2022/07/29 10:08:35;;;;;;;3.88;3.65;;;29.20;95.20;;;;;;4965482;28;20033;-76
2022/07/29 10:11:15;;;;;;;3.95;3.47;;;29.30;94.40;;;;;;4972606;28;20035;-76
2022/07/29 10:13:42;;;;;;;4.07;3.67;;;29.30;94.30;;;;;;4955204;28;20093;-76
2022/07/29 10:16:11;;;;;;;4.00;3.70;;;29.30;93.30;;;;;;4954904;28;20110;-77
2022/07/29 10:18:39;;;;;;;4.15;3.63;;;29.30;93.60;;;;;;4972482;28;20114;-76
2022/07/29 10:21:05;;;;;;;3.53;3.33;;;29.20;93.60;;;;;;4972167;28;20019;-76
2022/07/29 10:23:31;;;;;;;3.35;3.15;;;29.30;94.80;;;;;;4971690;28;20480;-76
2022/07/29 10:25:58;;;;;;;4.35;3.45;;;29.40;94.30;;;;;;4954681;28;20027;-76
2022/07/29 10:28:24;;;;;;;3.40;3.15;;;29.60;93.90;;;;;;4992910;28;20512;-76
2022/07/29 10:30:52;;;;;;;3.60;3.30;;;29.80;93.70;;;;;;5003429;28;20484;-76
2022/07/29 10:33:37;;;;;;;6.30;3.38;;;29.80;93.50;;;;;;4991180;28;20030;-76
2022/07/29 10:36:40;;;;;;;4.90;3.42;;;29.80;94.30;;;;;;4987040;28;20050;-76
2022/07/29 10:39:24;;;;;;;3.20;3.00;;;29.80;93.20;;;;;;4952010;28;20485;-76
2022/07/29 10:42:11;;;;;;;3.50;3.28;;;29.80;94.00;;;;;;4953416;28;20026;-76
2022/07/29 10:44:40;;;;;;;3.40;3.10;;;29.70;92.80;;;;;;4958457;28;20058;-76
2022/07/29 10:47:18;;;;;;;3.67;3.38;;;29.70;92.20;;;;;;4966486;28;20502;-76
2022/07/29 10:49:56;;;;;;;3.70;3.38;;;29.80;93.10;;;;;;4951040;28;20038;-76
2022/07/29 10:52:24;;;;;;;4.25;3.30;;;29.90;91.60;;;;;;4951001;28;20035;-76
2022/07/29 10:54:53;;;;;;;3.33;3.05;;;29.80;90.90;;;;;;4963662;28;20015;-76
2022/07/29 10:57:26;;;;;;;3.95;3.50;;;29.80;91.30;;;;;;4965404;28;20022;-77
2022/07/29 11:00:04;;;;;;;3.25;3.05;;;29.80;91.50;;;;;;4955878;28;20026;-76
2022/07/29 11:02:33;;;;;;;4.85;3.78;;;29.90;91.90;;;;;;4958501;28;20035;-76
2022/07/29 11:04:59;;;;;;;4.00;3.70;;;30.00;92.00;;;;;;4962943;28;20031;-76
2022/07/29 11:07:30;;;;;;;4.20;4.00;;;30.00;91.90;;;;;;4965455;28;20033;-76
2022/07/29 11:10:15;;;;;;;4.00;3.60;;;30.10;91.50;;;;;;4952479;28;20648;-76
2022/07/29 11:12:40;;;;;;;3.65;3.45;;;30.20;91.60;;;;;;4961899;28;20030;-76
2022/07/29 11:15:18;;;;;;;4.03;3.72;;;30.30;91.40;;;;;;4952374;28;20031;-76
2022/07/29 11:17:53;;;;;;;4.10;3.70;;;30.50;90.80;;;;;;4971476;28;20023;-76
2022/07/29 11:20:49;;;;;;;4.07;3.70;;;30.50;91.90;;;;;;4970826;28;20376;-76
2022/07/29 11:23:28;;;;;;;5.65;3.58;;;30.60;92.30;;;;;;4971594;28;20088;-76
2022/07/29 11:26:20;;;;;;;4.78;3.80;;;30.60;90.10;;;;;;4954025;28;20066;-77
2022/07/29 11:29:00;;;;;;;3.80;3.50;;;30.70;90.20;;;;;;4971530;28;20033;-76
2022/07/29 11:31:44;;;;;;;3.65;3.40;;;30.70;89.80;;;;;;4954343;28;20388;-76
2022/07/29 11:34:29;;;;;;;3.95;3.58;;;30.80;89.10;;;;;;4954215;28;20038;-76
2022/07/29 11:37:07;;;;;;;3.55;3.35;;;30.90;89.20;;;;;;4971192;28;20076;-76
2022/07/29 11:39:34;;;;;;;3.28;2.97;;;30.70;87.30;;;;;;4971353;28;20015;-76
2022/07/29 11:42:19;;;;;;;3.65;3.45;;;30.80;87.10;;;;;;4971466;28;20160;-76
2022/07/29 11:45:05;;;;;;;4.03;3.58;;;30.90;86.20;;;;;;4951882;28;20038;-76
2022/07/29 11:47:33;;;;;;;4.00;3.70;;;31.00;85.90;;;;;;4964128;28;20030;-77
2022/07/29 11:50:00;;;;;;;3.72;3.53;;;31.00;86.70;;;;;;4965979;28;20132;-76
2022/07/29 11:52:42;;;;;;;3.83;3.42;;;31.10;85.70;;;;;;4962183;28;20104;-76
2022/07/29 11:55:08;;;;;;;;;;;31.20;86.10;;;;;;4952659;28;20030;-76
2022/07/29 11:57:34;;;;;;;4.47;3.90;;;31.30;85.20;;;;;;4961385;28;19910;-76
2022/07/29 12:00:00;;;;;;;3.78;3.58;;;31.20;85.00;;;;;;4969894;28;20453;-76
2022/07/29 12:02:39;;;;;;;3.92;3.58;;;31.20;86.20;;;;;;4971091;28;20038;-76
2022/07/29 12:05:05;;;;;;;4.95;3.28;;;31.20;86.40;;;;;;4971236;28;20031;-77
2022/07/29 12:07:32;;;;;;;4.10;3.72;;;31.30;86.90;;;;;;4970974;28;20037;-76
2022/07/29 12:09:58;;;;;;;4.60;3.78;;;31.20;85.00;;;;;;4971039;28;20098;-76
2022/07/29 12:12:24;;;;;;;3.88;3.65;;;31.20;85.80;;;;;;4970757;28;20038;-76
2022/07/29 12:14:50;;;;;;;4.38;3.20;;;31.30;86.20;;;;;;4969790;28;20027;-76
2022/07/29 12:17:29;;;;;;;4.03;3.63;;;31.40;83.90;;;;;;4969276;28;20072;-76
2022/07/29 12:20:00;;;;;;;3.03;2.83;;;31.50;84.50;;;;;;4970476;28;20019;-76
2022/07/29 12:22:34;;;;;;;4.03;3.72;;;31.70;85.50;;;;;;4969400;28;20124;-76
2022/07/29 12:25:18;;;;;;;4.03;3.63;;;31.80;84.50;;;;;;4970813;28;20492;-76
2022/07/29 12:27:44;;;;;;;4.90;3.38;;;32.00;81.80;;;;;;4970756;28;20046;-76
2022/07/29 12:30:17;;;;;;;4.82;4.45;;;32.00;81.70;;;;;;4970920;28;20112;-76
2022/07/29 12:32:47;;;;;;;3.42;3.22;;;32.30;82.30;;;;;;4972237;28;20031;-76
2022/07/29 12:35:16;;;;;;;5.85;3.05;;;32.50;82.50;;;;;;4973183;28;20080;-76
2022/07/29 12:37:43;;;;;;;3.88;3.60;;;32.60;81.00;;;;;;4972059;28;20395;-76
2022/07/29 12:40:12;;;;;;;3.80;3.47;;;32.80;80.60;;;;;;4973145;28;20019;-77
2022/07/29 12:42:38;;;;;;;3.33;2.92;;;32.70;75.50;;;;;;4972073;28;20042;-76
2022/07/29 12:45:05;;;;;;;4.43;2.90;;;32.60;76.10;;;;;;4972953;28;20027;-76
2022/07/29 12:47:31;;;;;;;4.13;3.80;;;32.60;79.70;;;;;;4973345;28;20023;-76
2022/07/29 12:50:14;;;;;;;3.88;3.65;;;32.80;79.50;;;;;;4973867;28;20034;-76
2022/07/29 12:52:40;;;;;;;3.08;2.92;;;33.00;80.80;;;;;;4969072;28;20050;-76
2022/07/29 12:55:06;;;;;;;4.25;3.20;;;33.00;77.70;;;;;;4971929;28;20030;-76
2022/07/29 12:57:44;;;;;;;3.65;3.42;;;33.20;79.20;;;;;;4973351;28;20033;-76
2022/07/29 13:00:13;;;;;;;3.83;3.53;;;33.20;75.80;;;;;;5040632;28;20050;-76
2022/07/29 13:02:41;;;;;;;3.30;3.10;;;33.40;77.60;;;;;;4959039;28;20106;-76
2022/07/29 13:05:08;;;;;;;3.80;3.50;;;33.40;76.40;;;;;;4954189;29;20110;-76